createdAt,value
2023-03-03T00:00:26.006Z,6.46
2023-03-03T00:03:03.195Z,6.48
2023-03-03T00:05:36.646Z,6.44
2023-03-03T00:08:10.397Z,6.47
2023-03-03T00:10:43.371Z,6.46
2023-03-03T00:13:18.237Z,6.47
2023-03-03T00:15:51.863Z,6.42
2023-03-03T00:18:31.806Z,6.42
2023-03-03T00:21:25.755Z,6.51
2023-03-03T00:24:15.658Z,6.42
2023-03-03T00:26:49.425Z,6.34
2023-03-03T00:29:36.701Z,6.35
2023-03-03T00:32:22.231Z,6.34
2023-03-03T00:34:56.957Z,6.27
2023-03-03T00:37:34.721Z,6.31
2023-03-03T00:40:22.517Z,6.31
2023-03-03T00:42:57.513Z,6.33
2023-03-03T00:45:36.357Z,6.41
2023-03-03T00:48:23.971Z,6.30
2023-03-03T00:50:58.242Z,6.20
2023-03-03T00:53:32.642Z,6.25
2023-03-03T00:56:06.015Z,6.21
2023-03-03T00:58:38.747Z,6.30
2023-03-03T01:01:12.956Z,6.27
2023-03-03T01:03:51.051Z,6.25
2023-03-03T01:06:23.733Z,6.16
2023-03-03T01:08:57.513Z,6.19
2023-03-03T01:11:30.241Z,6.16
2023-03-03T01:14:03.019Z,6.08
2023-03-03T01:16:37.123Z,6.05
2023-03-03T01:19:10.659Z,6.06
2023-03-03T01:21:43.321Z,6.08
2023-03-03T01:24:16.044Z,6.05
2023-03-03T01:26:49.474Z,6.04
2023-03-03T01:29:22.361Z,6.00
2023-03-03T01:31:56.294Z,6.06
2023-03-03T01:34:29.189Z,5.99
2023-03-03T01:37:01.905Z,5.98
2023-03-03T01:39:34.687Z,6.03
2023-03-03T01:42:08.106Z,5.95
2023-03-03T01:44:40.857Z,5.98
2023-03-03T01:47:18.495Z,5.97
2023-03-03T01:49:57.789Z,5.92
2023-03-03T01:52:34.849Z,5.98
2023-03-03T01:55:13.345Z,5.83
2023-03-03T01:57:50.023Z,5.84
2023-03-03T02:00:22.952Z,5.92
2023-03-03T02:02:57.030Z,5.95
2023-03-03T02:05:30.487Z,5.94
2023-03-03T02:08:04.021Z,5.89
2023-03-03T02:10:37.184Z,5.83
2023-03-03T02:13:09.929Z,5.92
2023-03-03T02:15:42.783Z,5.90
2023-03-03T02:18:20.081Z,5.90
2023-03-03T02:20:59.590Z,5.88
2023-03-03T02:23:39.633Z,5.89
2023-03-03T02:26:17.256Z,5.82
2023-03-03T02:28:51.881Z,5.90
2023-03-03T02:31:27.295Z,5.88
2023-03-03T02:34:00.829Z,5.90
2023-03-03T02:36:35.732Z,5.90
2023-03-03T02:39:11.593Z,5.87
2023-03-03T02:41:52.084Z,5.91
2023-03-03T02:44:26.764Z,5.83
2023-03-03T02:47:00.253Z,5.80
2023-03-03T02:49:36.017Z,5.85
2023-03-03T02:52:12.247Z,5.77
2023-03-03T02:54:47.441Z,5.80
2023-03-03T02:57:21.785Z,5.76
2023-03-03T02:59:54.588Z,5.76
2023-03-03T03:02:27.380Z,5.75
2023-03-03T03:05:01.167Z,5.83
2023-03-03T03:07:33.823Z,5.74
2023-03-03T03:10:07.183Z,5.72
2023-03-03T03:12:44.572Z,5.74
2023-03-03T03:15:18.020Z,5.73
2023-03-03T03:17:52.456Z,5.69
2023-03-03T03:20:25.246Z,5.72
2023-03-03T03:22:58.575Z,5.65
2023-03-03T03:25:31.527Z,5.68
2023-03-03T03:28:06.144Z,5.65
2023-03-03T03:30:39.301Z,5.66
2023-03-03T03:33:13.219Z,5.67
2023-03-03T03:35:47.615Z,5.70
2023-03-03T03:38:22.573Z,5.68
2023-03-03T03:40:55.628Z,5.68
2023-03-03T03:43:29.622Z,5.61
2023-03-03T03:46:03.674Z,5.58
2023-03-03T03:48:37.326Z,5.66
2023-03-03T03:51:12.592Z,5.57
2023-03-03T03:53:46.701Z,5.58
2023-03-03T03:56:19.317Z,5.58
2023-03-03T03:58:56.815Z,5.53
2023-03-03T04:01:29.493Z,5.61
2023-03-03T04:04:04.127Z,5.57
2023-03-03T04:06:36.937Z,5.61
2023-03-03T04:09:11.965Z,5.52
2023-03-03T04:11:44.634Z,5.58
2023-03-03T04:14:20.027Z,5.54
2023-03-03T04:16:52.812Z,5.46
2023-03-03T04:19:26.601Z,5.58
2023-03-03T04:21:59.349Z,5.54
2023-03-03T04:24:32.134Z,5.41
2023-03-03T04:27:05.146Z,5.48
2023-03-03T04:29:39.999Z,5.41
2023-03-03T04:32:12.994Z,5.28
2023-03-03T04:34:48.947Z,5.36
2023-03-03T04:37:23.696Z,5.41
2023-03-03T04:39:56.912Z,5.42
2023-03-03T04:42:30.150Z,5.36
2023-03-03T04:45:05.526Z,5.41
2023-03-03T04:47:39.838Z,5.29
2023-03-03T04:50:13.425Z,5.33
2023-03-03T04:52:46.914Z,5.40
2023-03-03T04:55:20.520Z,5.35
2023-03-03T04:57:54.531Z,5.35
2023-03-03T05:00:28.839Z,5.31
2023-03-03T05:03:01.614Z,5.25
2023-03-03T05:05:34.652Z,5.23
2023-03-03T05:08:07.961Z,5.31
2023-03-03T05:10:40.899Z,5.17
2023-03-03T05:13:15.335Z,5.11
2023-03-03T05:15:52.844Z,5.17
2023-03-03T05:18:26.880Z,5.18
2023-03-03T05:20:59.966Z,5.16
2023-03-03T05:23:32.770Z,5.17
2023-03-03T05:26:05.771Z,5.17
2023-03-03T05:28:38.457Z,5.12
2023-03-03T05:31:12.757Z,5.13
2023-03-03T05:33:45.435Z,5.16
2023-03-03T05:36:18.176Z,5.14
2023-03-03T05:38:50.813Z,5.12
2023-03-03T05:41:24.200Z,5.05
2023-03-03T05:43:57.122Z,5.05
2023-03-03T05:46:31.225Z,5.05
2023-03-03T05:49:03.924Z,5.03
2023-03-03T05:51:36.676Z,5.02
2023-03-03T05:54:09.402Z,5.10
2023-03-03T05:56:42.033Z,5.14
2023-03-03T05:59:15.210Z,5.09
2023-03-03T06:01:49.416Z,5.13
2023-03-03T06:04:22.187Z,5.21
2023-03-03T06:06:54.994Z,5.15
2023-03-03T06:09:27.697Z,5.15
2023-03-03T06:12:00.476Z,5.11
2023-03-03T06:14:33.170Z,5.12
2023-03-03T06:17:07.324Z,5.14
2023-03-03T06:19:41.451Z,5.16
2023-03-03T06:22:14.618Z,5.13
2023-03-03T06:24:47.311Z,5.10
2023-03-03T06:27:20.125Z,5.14
2023-03-03T06:29:52.818Z,5.23
2023-03-03T06:32:27.093Z,5.18
2023-03-03T06:34:59.988Z,5.22
2023-03-03T06:37:32.841Z,5.01
2023-03-03T06:40:06.355Z,4.99
2023-03-03T06:42:39.582Z,5.00
2023-03-03T06:45:12.976Z,5.00
2023-03-03T06:47:47.296Z,4.97
2023-03-03T06:50:21.881Z,5.04
2023-03-03T06:53:03.836Z,5.01
2023-03-03T06:55:36.648Z,5.06
2023-03-03T06:58:13.268Z,5.04
2023-03-03T07:00:51.556Z,5.06
2023-03-03T07:03:27.505Z,5.03
2023-03-03T07:06:00.642Z,5.04
2023-03-03T07:08:33.887Z,4.95
2023-03-03T07:11:12.619Z,5.03
2023-03-03T07:13:48.795Z,5.02
2023-03-03T07:16:27.924Z,5.12
2023-03-03T07:19:03.983Z,5.07
2023-03-03T07:21:38.735Z,5.08
2023-03-03T07:24:23.876Z,5.09
2023-03-03T07:27:02.053Z,5.10
2023-03-03T07:29:35.694Z,5.10
2023-03-03T07:32:23.430Z,5.10
2023-03-03T07:34:58.009Z,5.11
2023-03-03T07:37:34.822Z,5.10
2023-03-03T07:40:30.835Z,5.13
2023-03-03T07:43:15.535Z,5.22
2023-03-03T07:45:48.311Z,5.17
2023-03-03T07:48:26.141Z,5.23
2023-03-03T07:51:06.088Z,5.22
2023-03-03T07:53:38.952Z,5.24
2023-03-03T07:56:23.586Z,5.26
2023-03-03T07:58:57.206Z,5.28
2023-03-03T08:01:45.573Z,5.26
2023-03-03T08:04:23.177Z,5.37
2023-03-03T08:06:59.014Z,5.36
2023-03-03T08:09:51.169Z,5.43
2023-03-03T08:12:32.570Z,5.44
2023-03-03T08:15:18.728Z,5.44
2023-03-03T08:17:54.923Z,5.49
2023-03-03T08:20:45.495Z,5.52
2023-03-03T08:23:21.591Z,5.49
2023-03-03T08:25:55.124Z,5.57
2023-03-03T08:28:27.998Z,5.59
2023-03-03T08:31:15.414Z,5.57
2023-03-03T08:33:51.148Z,5.62
2023-03-03T08:36:23.704Z,5.65
2023-03-03T08:38:57.890Z,5.67
2023-03-03T08:41:30.595Z,5.70
2023-03-03T08:44:03.378Z,5.72
2023-03-03T08:46:36.173Z,5.93
2023-03-03T08:49:08.872Z,6.00
2023-03-03T08:51:44.710Z,6.01
2023-03-03T08:54:19.237Z,6.14
2023-03-03T08:56:51.947Z,6.11
2023-03-03T08:59:24.737Z,6.29
2023-03-03T09:01:57.500Z,6.35
2023-03-03T09:04:30.456Z,6.44
2023-03-03T09:07:03.090Z,6.47
2023-03-03T09:09:40.191Z,6.49
2023-03-03T09:12:18.015Z,6.57
2023-03-03T09:14:52.455Z,6.63
2023-03-03T09:17:28.185Z,6.68
2023-03-03T09:20:04.114Z,6.67
2023-03-03T09:22:38.957Z,6.72
2023-03-03T09:25:24.624Z,6.73
2023-03-03T09:27:57.695Z,6.66
2023-03-03T09:30:39.542Z,6.74
2023-03-03T09:33:29.160Z,6.86
2023-03-03T09:36:13.707Z,6.89
2023-03-03T09:38:47.208Z,6.96
2023-03-03T09:41:58.736Z,7.11
2023-03-03T09:44:52.232Z,7.16
2023-03-03T09:47:34.603Z,6.78
2023-03-03T09:50:18.283Z,7.31
2023-03-03T09:52:57.343Z,7.42
2023-03-03T09:55:43.977Z,7.56
2023-03-03T09:58:45.900Z,7.63
2023-03-03T10:02:03.506Z,7.62
2023-03-03T10:04:52.301Z,7.75
2023-03-03T10:07:37.135Z,7.82
2023-03-03T10:10:25.631Z,7.87
2023-03-03T10:13:08.658Z,7.95
2023-03-03T10:15:51.419Z,8.12
2023-03-03T10:18:33.619Z,8.22
2023-03-03T10:21:11.822Z,8.36
2023-03-03T10:23:58.475Z,8.44
2023-03-03T10:27:13.356Z,8.49
2023-03-03T10:30:02.741Z,8.68
2023-03-03T10:32:45.646Z,8.69
2023-03-03T10:35:42.649Z,8.89
2023-03-03T10:38:30.049Z,9.02
2023-03-03T10:41:25.424Z,9.11
2023-03-03T10:44:17.889Z,9.29
2023-03-03T10:47:02.047Z,9.40
2023-03-03T10:49:55.862Z,9.49
2023-03-03T10:52:36.286Z,9.56
2023-03-03T10:55:39.257Z,9.64
2023-03-03T10:58:24.754Z,9.83
2023-03-03T11:01:05.233Z,9.84
2023-03-03T11:04:24.003Z,9.94
2023-03-03T11:07:08.505Z,10.22
2023-03-03T11:09:57.437Z,10.13
2023-03-03T11:12:41.363Z,10.54
2023-03-03T11:15:25.153Z,10.71
2023-03-03T11:18:13.018Z,11.04
2023-03-03T11:20:54.590Z,10.95
2023-03-03T11:24:02.776Z,11.12
2023-03-03T11:27:03.728Z,11.41
2023-03-03T11:30:04.032Z,11.63
2023-03-03T11:32:46.521Z,11.56
2023-03-03T11:35:24.701Z,11.65
2023-03-03T11:38:06.602Z,11.64
2023-03-03T11:40:48.382Z,11.79
2023-03-03T11:43:36.481Z,12.02
2023-03-03T11:46:12.698Z,12.16
2023-03-03T11:48:55.430Z,12.26
2023-03-03T11:51:39.745Z,12.40
2023-03-03T11:54:19.957Z,12.38
2023-03-03T11:57:00.856Z,12.57
2023-03-03T11:59:48.979Z,12.71
2023-03-03T12:02:33.036Z,12.73
2023-03-03T12:05:14.000Z,12.84
2023-03-03T12:07:55.768Z,12.90
2023-03-03T12:10:35.128Z,13.14
2023-03-03T12:13:17.602Z,13.17
2023-03-03T12:16:03.494Z,13.08
2023-03-03T12:18:58.268Z,12.88
2023-03-03T12:21:47.198Z,12.82
2023-03-03T12:24:34.318Z,12.64
2023-03-03T12:27:16.425Z,12.48
2023-03-03T12:30:00.616Z,12.53
2023-03-03T12:32:53.219Z,12.42
2023-03-03T12:35:37.225Z,12.39
2023-03-03T12:38:22.768Z,12.28
2023-03-03T12:41:04.314Z,12.14
2023-03-03T12:43:47.887Z,11.99
2023-03-03T12:46:30.021Z,12.00
2023-03-03T12:49:04.340Z,12.00
2023-03-03T12:51:49.398Z,11.93
2023-03-03T12:54:36.969Z,11.69
2023-03-03T12:57:20.745Z,11.78
2023-03-03T13:00:14.260Z,11.81
2023-03-03T13:02:51.106Z,11.85
2023-03-03T13:05:30.287Z,11.74
2023-03-03T13:08:19.077Z,11.78
2023-03-03T13:10:57.431Z,11.77
2023-03-03T13:13:41.441Z,11.70
2023-03-03T13:16:17.433Z,11.76
2023-03-03T13:18:56.783Z,11.76
2023-03-03T13:21:36.321Z,11.71
2023-03-03T13:24:19.873Z,11.65
2023-03-03T13:26:57.408Z,11.63
2023-03-03T13:29:37.143Z,11.70
2023-03-03T13:32:16.020Z,11.63
2023-03-03T13:34:57.028Z,11.54
2023-03-03T13:37:36.624Z,11.66
2023-03-03T13:40:18.386Z,11.69
2023-03-03T13:42:56.432Z,11.57
2023-03-03T13:45:36.653Z,11.61
2023-03-03T13:48:27.203Z,11.71
2023-03-03T13:51:06.377Z,11.70
2023-03-03T13:53:50.417Z,11.82
2023-03-03T13:56:44.795Z,11.77
2023-03-03T13:59:29.092Z,11.73
2023-03-03T14:02:15.538Z,11.76
2023-03-03T14:04:54.126Z,11.69
2023-03-03T14:07:31.920Z,11.68
2023-03-03T14:10:13.063Z,11.76
2023-03-03T14:12:52.477Z,11.72
2023-03-03T14:15:28.927Z,11.73
2023-03-03T14:18:18.619Z,11.73
2023-03-03T14:20:53.664Z,11.68
2023-03-03T14:23:33.538Z,11.68
2023-03-03T14:26:12.200Z,11.65
2023-03-03T14:28:48.250Z,11.60
2023-03-03T14:31:26.626Z,11.65
2023-03-03T14:34:02.596Z,11.60
2023-03-03T14:36:40.373Z,11.52
2023-03-03T14:39:31.703Z,11.62
2023-03-03T14:42:14.521Z,11.55
2023-03-03T14:44:55.726Z,11.49
2023-03-03T14:47:30.201Z,11.56
2023-03-03T14:50:23.113Z,11.50
2023-03-03T14:53:10.254Z,11.46
2023-03-03T14:55:45.728Z,11.48
2023-03-03T14:58:32.595Z,11.44
2023-03-03T15:01:14.184Z,11.29
2023-03-03T15:03:52.467Z,11.29
2023-03-03T15:06:32.083Z,11.24
2023-03-03T15:09:32.777Z,11.25
2023-03-03T15:12:20.695Z,11.27
2023-03-03T15:15:11.326Z,11.25
2023-03-03T15:17:54.960Z,11.23
2023-03-03T15:20:51.643Z,11.19
2023-03-03T15:23:51.273Z,11.18
2023-03-03T15:26:30.457Z,11.19
2023-03-03T15:29:09.180Z,11.17
2023-03-03T15:31:54.968Z,11.09
2023-03-03T15:34:39.267Z,11.19
2023-03-03T15:37:26.881Z,11.14
2023-03-03T15:40:06.029Z,11.07
2023-03-03T15:42:49.006Z,11.06
2023-03-03T15:45:28.316Z,10.97
2023-03-03T15:48:25.405Z,10.43
2023-03-03T15:51:07.815Z,10.67
2023-03-03T15:53:58.536Z,10.43
2023-03-03T15:56:38.294Z,10.64
2023-03-03T15:59:47.295Z,10.70
2023-03-03T16:02:22.725Z,10.68
2023-03-03T16:05:02.571Z,10.73
2023-03-03T16:07:47.887Z,10.59
2023-03-03T16:10:25.455Z,10.65
2023-03-03T16:13:11.865Z,10.65
2023-03-03T16:15:55.570Z,10.61
2023-03-03T16:18:38.927Z,10.57
2023-03-03T16:21:23.686Z,10.52
2023-03-03T16:23:59.483Z,10.57
2023-03-03T16:26:49.017Z,10.54
2023-03-03T16:29:46.540Z,10.45
2023-03-03T16:32:28.326Z,10.38
2023-03-03T16:35:13.220Z,10.33
2023-03-03T16:37:57.941Z,10.31
2023-03-03T16:40:36.586Z,10.29
2023-03-03T16:43:24.201Z,10.24
2023-03-03T16:46:00.484Z,10.22
2023-03-03T16:48:42.712Z,10.19
2023-03-03T16:51:29.085Z,10.10
2023-03-03T16:54:09.859Z,10.15
2023-03-03T16:56:47.784Z,10.07
2023-03-03T16:59:43.225Z,10.12
2023-03-03T17:02:53.976Z,10.08
2023-03-03T17:05:37.083Z,10.10
2023-03-03T17:08:40.658Z,10.05
2023-03-03T17:11:22.433Z,9.95
2023-03-03T17:14:11.284Z,9.91
2023-03-03T17:16:54.583Z,9.94
2023-03-03T17:19:41.794Z,9.97
2023-03-03T17:22:20.951Z,9.97
2023-03-03T17:25:05.700Z,9.91
2023-03-03T17:27:56.226Z,9.91
2023-03-03T17:30:40.439Z,9.87
2023-03-03T17:33:37.027Z,9.80
2023-03-03T17:36:28.999Z,9.81
2023-03-03T17:39:13.397Z,9.78
2023-03-03T17:41:53.245Z,9.74
2023-03-03T17:44:35.763Z,9.68
2023-03-03T17:47:12.467Z,9.64
2023-03-03T17:50:03.210Z,9.66
2023-03-03T17:52:57.215Z,9.64
2023-03-03T17:55:52.620Z,9.64
2023-03-03T17:58:49.898Z,9.58
2023-03-03T18:01:34.017Z,9.60
2023-03-03T18:04:36.369Z,9.58
2023-03-03T18:07:21.303Z,9.53
2023-03-03T18:10:26.314Z,9.54
2023-03-03T18:13:10.130Z,9.48
2023-03-03T18:16:13.606Z,9.49
2023-03-03T18:19:02.135Z,9.46
2023-03-03T18:21:44.278Z,9.41
2023-03-03T18:24:29.579Z,9.38
2023-03-03T18:27:29.865Z,9.41
2023-03-03T18:30:21.277Z,9.41
2023-03-03T18:33:08.998Z,9.41
2023-03-03T18:35:44.406Z,9.37
2023-03-03T18:38:35.733Z,9.37
2023-03-03T18:41:12.025Z,9.35
2023-03-03T18:43:56.984Z,9.38
2023-03-03T18:46:50.890Z,9.38
2023-03-03T18:49:53.566Z,9.33
2023-03-03T18:52:29.982Z,9.28
2023-03-03T18:55:25.968Z,9.29
2023-03-03T18:58:23.838Z,9.29
2023-03-03T19:01:00.642Z,9.27
2023-03-03T19:03:37.921Z,9.28
2023-03-03T19:06:10.821Z,9.23
2023-03-03T19:08:51.211Z,9.23
2023-03-03T19:11:40.443Z,9.21
2023-03-03T19:14:19.424Z,9.25
2023-03-03T19:16:53.343Z,9.21
2023-03-03T19:19:31.803Z,9.23
2023-03-03T19:22:25.551Z,9.20
2023-03-03T19:25:17.013Z,9.16
2023-03-03T19:27:59.077Z,9.14
2023-03-03T19:30:46.256Z,9.15
2023-03-03T19:33:38.504Z,9.16
2023-03-03T19:36:22.559Z,9.18
2023-03-03T19:39:10.604Z,9.13
2023-03-03T19:42:00.818Z,9.19
2023-03-03T19:44:56.972Z,9.12
2023-03-03T19:47:39.769Z,9.11
2023-03-03T19:50:26.139Z,9.03
2023-03-03T19:53:05.619Z,9.06
2023-03-03T19:55:49.961Z,9.06
2023-03-03T19:58:33.745Z,9.07
2023-03-03T20:01:15.406Z,9.04
2023-03-03T20:04:23.393Z,8.88
2023-03-03T20:07:05.304Z,8.96
2023-03-03T20:09:45.283Z,9.00
2023-03-03T20:12:31.085Z,8.98
2023-03-03T20:15:12.347Z,8.97
2023-03-03T20:17:54.458Z,9.04
2023-03-03T20:20:56.012Z,9.05
2023-03-03T20:23:36.649Z,9.04
2023-03-03T20:26:17.409Z,8.97
2023-03-03T20:29:07.513Z,8.97
2023-03-03T20:31:49.180Z,8.96
2023-03-03T20:34:35.570Z,8.96
2023-03-03T20:37:12.458Z,8.99
2023-03-03T20:40:01.765Z,8.97
2023-03-03T20:42:45.140Z,8.94
2023-03-03T20:45:32.562Z,8.97
2023-03-03T20:48:22.571Z,8.93
2023-03-03T20:51:04.278Z,8.93
2023-03-03T20:53:48.312Z,8.93
2023-03-03T20:56:28.822Z,8.90
2023-03-03T20:59:12.993Z,8.92
2023-03-03T21:01:54.136Z,8.90
2023-03-03T21:04:30.718Z,8.89
2023-03-03T21:07:05.268Z,8.85
2023-03-03T21:09:39.434Z,8.82
2023-03-03T21:12:26.502Z,8.83
2023-03-03T21:15:03.432Z,8.85
2023-03-03T21:17:36.198Z,8.81
2023-03-03T21:20:21.464Z,8.78
2023-03-03T21:22:55.792Z,8.79
2023-03-03T21:25:47.777Z,8.77
2023-03-03T21:28:23.673Z,8.81
2023-03-03T21:31:14.081Z,8.77
2023-03-03T21:33:54.224Z,8.81
2023-03-03T21:36:47.366Z,8.78
2023-03-03T21:39:25.921Z,8.79
2023-03-03T21:42:02.155Z,8.78
2023-03-03T21:44:40.644Z,8.75
2023-03-03T21:47:15.364Z,8.76
2023-03-03T21:49:50.046Z,8.78
2023-03-03T21:52:24.082Z,8.76
2023-03-03T21:54:57.022Z,8.74
2023-03-03T21:57:29.636Z,8.74
2023-03-03T22:00:02.694Z,8.75
2023-03-03T22:02:40.631Z,8.74
2023-03-03T22:05:13.330Z,8.78
2023-03-03T22:07:47.345Z,8.76
2023-03-03T22:10:20.293Z,8.73
2023-03-03T22:12:53.007Z,8.75
2023-03-03T22:15:26.513Z,8.75
2023-03-03T22:17:59.280Z,8.73
2023-03-03T22:20:32.373Z,8.76
2023-03-03T22:23:06.509Z,8.72
2023-03-03T22:25:39.502Z,8.74
2023-03-03T22:28:12.237Z,8.68
2023-03-03T22:30:45.061Z,8.69
2023-03-03T22:33:17.855Z,8.69
2023-03-03T22:35:50.819Z,8.70
2023-03-03T22:38:25.209Z,8.75
2023-03-03T22:40:58.036Z,8.73
2023-03-03T22:43:30.728Z,8.74
2023-03-03T22:46:04.054Z,8.72
2023-03-03T22:48:37.767Z,8.70
2023-03-03T22:51:10.685Z,8.71
2023-03-03T22:53:44.588Z,8.72
2023-03-03T22:56:17.354Z,8.64
2023-03-03T22:58:50.300Z,8.73
2023-03-03T23:01:23.082Z,8.71
2023-03-03T23:03:55.752Z,8.72
2023-03-03T23:06:28.522Z,8.72
2023-03-03T23:09:02.678Z,8.73
2023-03-03T23:11:35.648Z,8.69
2023-03-03T23:14:08.255Z,8.71
2023-03-03T23:16:41.020Z,8.67
2023-03-03T23:19:14.183Z,8.66
2023-03-03T23:21:46.938Z,8.69
2023-03-03T23:24:21.088Z,8.70
2023-03-03T23:26:56.895Z,8.64
2023-03-03T23:29:30.462Z,8.63
2023-03-03T23:32:03.582Z,8.67
2023-03-03T23:34:36.377Z,8.66
2023-03-03T23:37:09.472Z,8.67
2023-03-03T23:39:43.432Z,8.71
2023-03-03T23:42:16.216Z,8.66
2023-03-03T23:44:48.928Z,8.63
2023-03-03T23:47:21.814Z,8.58
2023-03-03T23:49:54.472Z,8.60
2023-03-03T23:52:27.180Z,8.61
2023-03-03T23:55:01.271Z,8.61
2023-03-03T23:57:34.192Z,8.60
